Time;durP1;ratioP1;P1;durP2;ratioP2;P2;SDS_P1;SDS_P2;PMS_P1;PMS_P2;Temp;Humidity;BMP_temperature;BMP_pressure;BME280_temperature;BME280_humidity;BME280_pressure;Samples;Min_cycle;Max_cycle;Signal;HPM_P1;HPM_P2
2022/08/27 00:00:31;;;;;;;;;;;;;;;19.36;100.00;100082.13;3048181;19;1862;-49
2022/08/27 00:01:35;;;;;;;;;;;;;;;19.34;100.00;100077.88;3051206;19;970;-49
2022/08/27 00:02:37;;;;;;;;;;;;;;;19.32;100.00;100069.91;3051179;19;949;-49
2022/08/27 00:03:42;;;;;;;;;;;;;;;19.31;100.00;100060.13;3051399;19;815;-48
2022/08/27 00:04:45;;;;;;;;;;;;;;;19.28;100.00;100070.41;3052366;19;1388;-48
2022/08/27 00:05:49;;;;;;;;;;;;;;;19.28;100.00;100073.13;3056208;19;1011;-49
2022/08/27 00:06:51;;;;;;;;;;;;;;;19.24;100.00;100069.88;3056472;19;1157;-48
2022/08/27 00:07:57;;;;;;;;;;;;;;;19.23;100.00;100057.34;3055991;19;913;-48
2022/08/27 00:08:58;;;;;;;;;;;;;;;19.20;100.00;100059.56;3055149;19;1328;-49
2022/08/27 00:10:03;;;;;;;;;;;;;;;19.18;100.00;100057.00;3056589;19;886;-49
2022/08/27 00:11:05;;;;;;;;;;;;;;;19.13;100.00;100051.22;3055712;19;1669;-50
2022/08/27 00:12:10;;;;;;;;;;;;;;;19.11;100.00;100060.50;3056348;19;979;-49
2022/08/27 00:13:14;;;;;;;;;;;;;;;19.08;100.00;100047.31;3056325;19;904;-49
2022/08/27 00:14:19;;;;;;;;;;;;;;;19.04;100.00;100044.06;3056202;19;907;-49
2022/08/27 00:15:21;;;;;;;;;;;;;;;19.01;100.00;100050.63;3056039;19;954;-49
2022/08/27 00:16:26;;;;;;;;;;;;;;;18.96;100.00;100036.72;3055640;19;936;-50
2022/08/27 00:17:28;;;;;;;;;;;;;;;18.93;100.00;100037.06;3054259;19;1001;-49
2022/08/27 00:18:33;;;;;;;;;;;;;;;18.90;100.00;100031.97;3054527;19;1479;-50
2022/08/27 00:19:35;;;;;;;;;;;;;;;18.86;100.00;100027.88;3052155;19;1695;-49
2022/08/27 00:20:40;;;;;;;;;;;;;;;18.84;100.00;100029.88;3046935;19;1877;-49
2022/08/27 00:21:42;;;;;;;;;;;;;;;18.81;100.00;100016.72;3046494;19;1417;-49
2022/08/27 00:22:46;;;;;;;;;;;;;;;18.79;100.00;100018.72;3046912;19;1067;-48
2022/08/27 00:23:48;;;;;;;;;;;;;;;18.77;100.00;100020.72;3049343;19;1314;-49
2022/08/27 00:24:53;;;;;;;;;;;;;;;18.76;100.00;100024.44;3051257;19;937;-50
2022/08/27 00:25:55;;;;;;;;;;;;;;;18.75;100.00;100024.59;3051003;19;1292;-49
2022/08/27 00:27:00;;;;;;;;;;;;;;;18.75;100.00;100022.75;3051951;19;960;-49
2022/08/27 00:28:02;;;;;;;;;;;;;;;18.73;100.00;100016.63;3054531;19;1115;-48
2022/08/27 00:29:07;;;;;;;;;;;;;;;18.72;100.00;100017.63;3054110;19;1511;-49
2022/08/27 00:30:11;;;;;;;;;;;;;;;18.72;100.00;100014.13;3055577;19;1075;-49
2022/08/27 00:31:16;;;;;;;;;;;;;;;18.71;100.00;100015.97;3055946;19;1086;-49
2022/08/27 00:32:18;;;;;;;;;;;;;;;18.70;100.00;100020.53;3056093;19;1031;-49
2022/08/27 00:33:23;;;;;;;;;;;;;;;18.70;100.00;100009.72;3055716;19;960;-49
2022/08/27 00:34:24;;;;;;;;;;;;;;;18.71;100.00;100021.38;3054256;19;968;-49
2022/08/27 00:35:29;;;;;;;;;;;;;;;18.69;100.00;100013.41;3056167;19;980;-49
2022/08/27 00:36:31;;;;;;;;;;;;;;;18.68;100.00;100008.16;3055544;19;1002;-49
2022/08/27 00:37:35;;;;;;;;;;;;;;;18.69;100.00;100017.97;3055239;19;903;-49
2022/08/27 00:38:37;;;;;;;;;;;;;;;18.69;100.00;100018.81;3055560;19;1280;-49
2022/08/27 00:39:42;;;;;;;;;;;;;;;18.70;100.00;100020.53;3056336;19;1067;-49
2022/08/27 00:40:44;;;;;;;;;;;;;;;18.71;100.00;100021.38;3054531;19;1851;-49
2022/08/27 00:41:49;;;;;;;;;;;;;;;18.70;100.00;100019.69;3054382;19;1764;-49
2022/08/27 00:42:50;;;;;;;;;;;;;;;18.72;100.00;100023.03;3048807;19;929;-48
2022/08/27 00:43:56;;;;;;;;;;;;;;;18.73;100.00;100023.91;3048514;19;1068;-49
2022/08/27 00:44:58;;;;;;;;;;;;;;;18.71;100.00;100021.38;3048659;19;1054;-48
2022/08/27 00:46:09;;;;;;;;;;;;;;;18.70;100.00;100025.94;3049988;19;901;-50
2022/08/27 00:47:13;;;;;;;;;;;;;;;18.70;100.00;100015.13;3050198;19;893;-49
2022/08/27 00:48:18;;;;;;;;;;;;;;;18.70;100.00;100020.53;3049889;19;1037;-48
2022/08/27 00:49:28;;;;;;;;;;;;;;;18.69;100.00;100023.38;3049896;19;964;-48
2022/08/27 00:50:39;;;;;;;;;;;;;;;18.70;100.00;100025.09;3054982;19;1041;-49
2022/08/27 00:51:43;;;;;;;;;;;;;;;18.68;100.00;100033.34;3054475;19;1024;-49
2022/08/27 00:52:56;;;;;;;;;;;;;;;18.65;100.00;100017.44;3055532;19;909;-49
2022/08/27 00:53:58;;;;;;;;;;;;;;;18.63;100.00;100019.44;3054995;19;878;-49
2022/08/27 00:55:08;;;;;;;;;;;;;;;18.65;100.00;100013.88;3054192;19;970;-49
2022/08/27 00:56:24;;;;;;;;;;;;;;;18.65;100.00;100022.00;3054403;19;964;-50
2022/08/27 00:57:28;;;;;;;;;;;;;;;18.63;100.00;100021.28;3054660;19;1004;-49
2022/08/27 00:58:32;;;;;;;;;;;;;;;18.64;100.00;100014.88;3055041;19;1368;-50
2022/08/27 00:59:36;;;;;;;;;;;;;;;18.62;100.00;100017.75;3054530;19;989;-49
2022/08/27 01:00:38;;;;;;;;;;;;;;;18.62;100.00;100016.91;3054767;19;941;-49
2022/08/27 01:02:17;;;;;;;;;;;;;;;18.62;100.00;100027.72;3053705;19;1871;-49
2022/08/27 01:03:05;;;;;;;;;;;;;;;18.60;100.00;100021.59;3055177;19;2493;-48
2022/08/27 01:04:10;;;;;;;;;;;;;;;18.57;100.00;100025.47;3055630;19;1011;-49
2022/08/27 01:05:14;;;;;;;;;;;;;;;18.56;100.00;100022.91;3049050;19;912;-48
2022/08/27 01:06:18;;;;;;;;;;;;;;;18.56;100.00;100022.91;3048064;19;1311;-49
2022/08/27 01:07:21;;;;;;;;;;;;;;;18.54;100.00;100014.09;3046766;19;1381;-48
2022/08/27 01:08:29;;;;;;;;;;;;;;;18.53;100.00;100012.41;3048168;19;1097;-49
2022/08/27 01:09:30;;;;;;;;;;;;;;;18.50;100.00;100010.00;3051184;19;766;-49
2022/08/27 01:10:35;;;;;;;;;;;;;;;18.48;100.00;100014.72;3050517;19;1020;-49
2022/08/27 01:11:37;;;;;;;;;;;;;;;18.46;100.00;100016.75;3048879;19;995;-49
2022/08/27 01:12:42;;;;;;;;;;;;;;;18.44;100.00;100002.56;3053699;19;1246;-49
2022/08/27 01:13:44;;;;;;;;;;;;;;;18.43;100.00;100014.34;3055711;19;928;-49
2022/08/27 01:15:05;;;;;;;;;;;;;;;18.40;100.00;100006.56;3055723;19;928;-49
2022/08/27 01:16:08;;;;;;;;;;;;;;;18.36;100.00;100003.31;3055257;19;957;-48
2022/08/27 01:17:13;;;;;;;;;;;;;;;18.34;100.00;100006.19;3054605;19;949;-49
2022/08/27 01:18:15;;;;;;;;;;;;;;;18.33;100.00;99995.53;3054051;19;1220;-49
2022/08/27 01:19:31;;;;;;;;;;;;;;;18.31;100.00;99998.41;3054822;19;1704;-49
2022/08/27 01:20:45;;;;;;;;;;;;;;;18.28;100.00;100004.09;3054337;19;952;-49
2022/08/27 01:21:50;;;;;;;;;;;;;;;18.25;100.00;99996.31;3053647;19;1866;-49
2022/08/27 01:23:13;;;;;;;;;;;;;;;18.23;100.00;99995.59;3054555;19;930;-49
2022/08/27 01:24:32;;;;;;;;;;;;;;;18.19;100.00;99999.63;3055285;19;1009;-49
2022/08/27 01:25:36;;;;;;;;;;;;;;;18.16;100.00;99983.72;3054158;19;802;-49
2022/08/27 01:26:38;;;;;;;;;;;;;;;18.13;100.00;99991.28;3054596;19;1222;-49
2022/08/27 01:27:43;;;;;;;;;;;;;;;18.09;100.00;99988.06;3049163;19;973;-49
2022/08/27 01:28:45;;;;;;;;;;;;;;;18.07;100.00;99984.66;3047127;19;1353;-50
2022/08/27 01:29:50;;;;;;;;;;;;;;;18.02;100.00;99981.56;3046092;19;1610;-48
2022/08/27 01:30:51;;;;;;;;;;;;;;;18.06;100.00;99976.72;3048003;19;1027;-50
2022/08/27 01:32:00;;;;;;;;;;;;;;;18.04;100.00;99984.97;3050248;19;1151;-50
2022/08/27 01:33:15;;;;;;;;;;;;;;;18.02;100.00;99981.56;3050868;19;884;-49
2022/08/27 01:34:17;;;;;;;;;;;;;;;18.00;100.00;99975.47;3050325;19;1539;-48
2022/08/27 01:35:22;;;;;;;;;;;;;;;18.01;100.00;99979.88;3054361;19;1019;-49
2022/08/27 01:36:24;;;;;;;;;;;;;;;17.97;100.00;99978.50;3053589;19;908;-49
2022/08/27 01:37:29;;;;;;;;;;;;;;;17.95;100.00;99980.50;3054898;19;1658;-48
2022/08/27 01:38:31;;;;;;;;;;;;;;;17.90;100.00;99974.69;3054880;19;1060;-48
2022/08/27 01:39:38;;;;;;;;;;;;;;;17.87;100.00;99967.75;3055047;19;1776;-49
2022/08/27 01:40:41;;;;;;;;;;;;;;;17.83;100.00;99979.88;3054954;19;1796;-49
2022/08/27 01:41:48;;;;;;;;;;;;;;;17.79;100.00;99966.84;3054293;19;1869;-49
2022/08/27 01:42:54;;;;;;;;;;;;;;;17.74;100.00;99966.47;3053677;19;1680;-48
2022/08/27 01:43:58;;;;;;;;;;;;;;;17.72;100.00;99966.63;3054197;19;1015;-48
2022/08/27 01:45:03;;;;;;;;;;;;;;;17.68;100.00;99967.91;3053718;19;1133;-49
2022/08/27 01:46:09;;;;;;;;;;;;;;;17.66;100.00;99969.06;3054191;19;936;-50
2022/08/27 01:47:11;;;;;;;;;;;;;;;17.64;100.00;99963.81;3057696;19;919;-48
2022/08/27 01:48:16;;;;;;;;;;;;;;;17.62;100.00;99963.09;3058259;19;1041;-49
2022/08/27 01:49:18;;;;;;;;;;;;;;;17.58;100.00;99962.56;3057848;19;1003;-48
2022/08/27 01:50:24;;;;;;;;;;;;;;;17.56;100.00;99955.59;3051481;19;940;-49
2022/08/27 01:51:26;;;;;;;;;;;;;;;17.54;100.00;99960.28;3049910;19;1344;-49
2022/08/27 01:52:31;;;;;;;;;;;;;;;17.53;100.00;99948.66;3050826;19;905;-49
2022/08/27 01:53:33;;;;;;;;;;;;;;;17.51;100.00;99944.44;3052268;19;1435;-49
2022/08/27 01:54:37;;;;;;;;;;;;;;;17.50;100.00;99953.53;3052702;19;992;-49
2022/08/27 01:55:43;;;;;;;;;;;;;;;17.49;100.00;99947.28;3051628;19;1449;-48
2022/08/27 01:56:48;;;;;;;;;;;;;;;17.47;100.00;99951.97;3052551;19;896;-49
2022/08/27 01:57:54;;;;;;;;;;;;;;;17.46;100.00;99952.97;3057582;19;1565;-48
2022/08/27 01:58:55;;;;;;;;;;;;;;;17.46;100.00;99952.13;3057142;19;1035;-49
2022/08/27 02:00:00;;;;;;;;;;;;;;;17.42;100.00;99946.16;3057883;19;1361;-50
2022/08/27 02:01:12;;;;;;;;;;;;;;;17.40;100.00;99941.91;3057268;19;933;-49
2022/08/27 02:02:18;;;;;;;;;;;;;;;17.37;100.00;99948.50;3056376;19;1850;-49
2022/08/27 02:03:20;;;;;;;;;;;;;;;17.36;100.00;99933.31;3056992;19;849;-49
2022/08/27 02:04:25;;;;;;;;;;;;;;;17.33;100.00;99927.34;3057722;19;991;-50
2022/08/27 02:05:27;;;;;;;;;;;;;;;17.31;100.00;99926.66;3057898;19;936;-49
2022/08/27 02:06:32;;;;;;;;;;;;;;;17.28;100.00;99928.66;3057603;19;1014;-48
2022/08/27 02:07:35;;;;;;;;;;;;;;;17.26;100.00;99925.28;3057210;19;948;-48
2022/08/27 02:08:39;;;;;;;;;;;;;;;17.23;100.00;99922.03;3057737;19;1068;-51
2022/08/27 02:09:41;;;;;;;;;;;;;;;17.20;100.00;99916.94;3057629;19;1226;-49
2022/08/27 02:10:46;;;;;;;;;;;;;;;17.19;100.00;99920.63;3057828;19;917;-48
2022/08/27 02:11:48;;;;;;;;;;;;;;;17.16;100.00;99919.06;3057280;19;1047;-49
2022/08/27 02:12:53;;;;;;;;;;;;;;;17.14;100.00;99907.59;3050706;19;1002;-49
2022/08/27 02:13:55;;;;;;;;;;;;;;;17.14;100.00;99910.31;3050002;19;1048;-49
2022/08/27 02:14:59;;;;;;;;;;;;;;;17.14;100.00;99907.59;3050703;19;1690;-48
2022/08/27 02:16:01;;;;;;;;;;;;;;;17.12;100.00;99904.22;3052073;19;1285;-49
2022/08/27 02:17:06;;;;;;;;;;;;;;;17.12;100.00;99906.06;3052938;19;982;-49
2022/08/27 02:18:08;;;;;;;;;;;;;;;17.12;100.00;99906.06;3052763;19;1304;-49
2022/08/27 02:19:13;;;;;;;;;;;;;;;17.11;100.00;99905.22;3052499;19;952;-48
2022/08/27 02:20:16;;;;;;;;;;;;;;;17.09;100.00;99903.66;3057307;19;882;-49
2022/08/27 02:21:20;;;;;;;;;;;;;;;17.09;100.00;99912.59;3057742;19;1696;-48
2022/08/27 02:22:23;;;;;;;;;;;;;;;17.08;100.00;99910.03;3056570;19;1853;-49
2022/08/27 02:23:27;;;;;;;;;;;;;;;17.07;100.00;99900.25;3057900;19;909;-49
2022/08/27 02:24:29;;;;;;;;;;;;;;;17.06;100.00;99912.03;3057308;19;1295;-48
2022/08/27 02:25:34;;;;;;;;;;;;;;;17.05;100.00;99899.53;3057259;19;952;-49
2022/08/27 02:26:36;;;;;;;;;;;;;;;17.04;100.00;99903.25;3057578;19;917;-49
2022/08/27 02:27:41;;;;;;;;;;;;;;;17.03;100.00;99901.53;3057735;19;969;-49
2022/08/27 02:28:43;;;;;;;;;;;;;;;17.02;100.00;99895.31;3057423;19;992;-49
2022/08/27 02:29:48;;;;;;;;;;;;;;;17.01;100.00;99903.56;3057167;19;1660;-50
2022/08/27 02:30:50;;;;;;;;;;;;;;;17.01;100.00;99898.16;3057017;19;918;-49
2022/08/27 02:31:55;;;;;;;;;;;;;;;16.98;100.00;99893.91;3057991;19;934;-49
2022/08/27 02:32:59;;;;;;;;;;;;;;;16.98;100.00;99901.16;3057193;19;991;-49
2022/08/27 02:34:04;;;;;;;;;;;;;;;16.97;100.00;99903.00;3057754;19;951;-48
2022/08/27 02:35:06;;;;;;;;;;;;;;;16.97;100.00;99902.16;3052600;19;1470;-48
2022/08/27 02:36:11;;;;;;;;;;;;;;;16.95;100.00;99898.75;3049899;19;983;-49
2022/08/27 02:37:13;;;;;;;;;;;;;;;16.92;100.00;99892.66;3049910;19;981;-49
2022/08/27 02:38:17;;;;;;;;;;;;;;;16.92;100.00;99899.91;3050957;19;870;-48
2022/08/27 02:39:19;;;;;;;;;;;;;;;16.90;100.00;99908.13;3052457;19;1196;-49
2022/08/27 02:40:25;;;;;;;;;;;;;;;16.88;100.00;99904.75;3052446;19;996;-49
2022/08/27 02:41:27;;;;;;;;;;;;;;;16.87;100.00;99892.28;3051650;19;1043;-49
2022/08/27 02:42:32;;;;;;;;;;;;;;;16.88;100.00;99903.91;3055372;19;1868;-48
2022/08/27 02:43:33;;;;;;;;;;;;;;;16.85;100.00;99893.41;3057264;19;1011;-49
2022/08/27 02:44:39;;;;;;;;;;;;;;;16.87;100.00;99897.66;3057111;19;944;-49
2022/08/27 02:45:41;;;;;;;;;;;;;;;16.85;100.00;99891.56;3056732;19;1330;-49
2022/08/27 02:46:47;;;;;;;;;;;;;;;16.84;100.00;99897.97;3057939;19;1153;-49
2022/08/27 02:47:56;;;;;;;;;;;;;;;16.83;100.00;99901.66;3056743;19;862;-49
2022/08/27 02:48:58;;;;;;;;;;;;;;;16.85;100.00;99893.41;3057081;19;988;-49
2022/08/27 02:50:03;;;;;;;;;;;;;;;16.85;100.00;99894.28;3057487;19;1019;-48
2022/08/27 02:51:05;;;;;;;;;;;;;;;16.85;100.00;99894.28;3056372;19;901;-48
2022/08/27 02:52:09;;;;;;;;;;;;;;;16.85;100.00;99898.81;3056294;19;984;-49
2022/08/27 02:53:11;;;;;;;;;;;;;;;16.85;100.00;99888.88;3056064;19;909;-49
2022/08/27 02:54:16;;;;;;;;;;;;;;;16.86;100.00;99884.34;3056694;19;937;-48
2022/08/27 02:55:18;;;;;;;;;;;;;;;16.84;100.00;99881.78;3057021;19;905;-50
2022/08/27 02:56:23;;;;;;;;;;;;;;;16.77;100.00;99874.47;3056965;19;1788;-49
2022/08/27 02:57:24;;;;;;;;;;;;;;;16.84;100.00;99897.09;3053409;19;1016;-47
2022/08/27 02:58:29;;;;;;;;;;;;;;;16.81;100.00;99882.06;3048864;19;1034;-49
2022/08/27 02:59:31;;;;;;;;;;;;;;;16.81;100.00;99881.22;3048631;19;1055;-49
2022/08/27 03:00:35;;;;;;;;;;;;;;;16.80;100.00;99880.38;3049720;19;1185;-49
2022/08/27 03:01:37;;;;;;;;;;;;;;;16.78;100.00;99882.41;3051382;19;1415;-48
2022/08/27 03:02:42;;;;;;;;;;;;;;;16.77;100.00;99874.47;3052417;19;1865;-49
2022/08/27 03:03:44;;;;;;;;;;;;;;;16.77;100.00;99880.69;3051949;19;1004;-48
2022/08/27 03:04:48;;;;;;;;;;;;;;;16.75;100.00;99888.06;3053368;19;1035;-49
2022/08/27 03:05:52;;;;;;;;;;;;;;;16.73;100.00;99884.69;3056551;19;929;-49
2022/08/27 03:06:56;;;;;;;;;;;;;;;16.72;100.00;99874.03;3057139;19;1021;-49
2022/08/27 03:07:58;;;;;;;;;;;;;;;16.70;100.00;99873.34;3057120;19;940;-49
2022/08/27 03:09:03;;;;;;;;;;;;;;;16.69;100.00;99888.66;3056044;19;1784;-49
2022/08/27 03:10:05;;;;;;;;;;;;;;;16.69;100.00;99888.66;3056608;19;960;-48
2022/08/27 03:11:11;;;;;;;;;;;;;;;16.68;100.00;99881.56;3056487;19;937;-49
2022/08/27 03:12:14;;;;;;;;;;;;;;;16.67;100.00;99885.25;3055983;19;1004;-50
2022/08/27 03:13:19;;;;;;;;;;;;;;;16.66;100.00;99878.19;3057133;19;1082;-49
2022/08/27 03:14:21;;;;;;;;;;;;;;;16.64;100.00;99871.25;3056707;19;1765;-51
2022/08/27 03:15:25;;;;;;;;;;;;;;;16.63;100.00;99883.88;3056372;19;1016;-49
2022/08/27 03:16:28;;;;;;;;;;;;;;;16.63;100.00;99872.25;3056427;19;932;-49
2022/08/27 03:18:49;;;;;;;;;;;;;;;16.63;100.00;99864.16;3056908;19;1016;-48
2022/08/27 03:19:51;;;;;;;;;;;;;;;16.60;100.00;99865.28;3055915;19;1019;-48
2022/08/27 03:20:54;;;;;;;;;;;;;;;16.59;100.00;99866.25;3047644;19;1037;-49
2022/08/27 03:21:58;;;;;;;;;;;;;;;16.59;100.00;99866.25;3048438;19;1795;-49
2022/08/27 03:23:00;;;;;;;;;;;;;;;16.57;100.00;99858.31;3049026;19;1879;-48
2022/08/27 03:24:07;;;;;;;;;;;;;;;16.57;100.00;99852.94;3052447;19;963;-50
2022/08/27 03:25:12;;;;;;;;;;;;;;;16.57;100.00;99847.56;3051725;19;879;-49
2022/08/27 03:26:17;;;;;;;;;;;;;;;16.58;100.00;99859.19;3052014;19;826;-48
2022/08/27 03:27:19;;;;;;;;;;;;;;;16.58;100.00;99856.47;3051545;19;1710;-49
2022/08/27 03:28:24;;;;;;;;;;;;;;;16.58;100.00;99859.19;3055721;19;1051;-49
2022/08/27 03:29:27;;;;;;;;;;;;;;;16.57;100.00;99857.47;3056848;19;1035;-49
2022/08/27 03:30:31;;;;;;;;;;;;;;;16.57;100.00;99862.88;3056943;19;906;-49
2022/08/27 03:31:33;;;;;;;;;;;;;;;16.57;100.00;99857.47;3056146;19;920;-49
2022/08/27 03:32:38;;;;;;;;;;;;;;;16.57;100.00;99862.88;3056852;19;1007;-49
2022/08/27 03:33:40;;;;;;;;;;;;;;;16.57;100.00;99862.88;3056589;19;1063;-49
2022/08/27 03:34:45;;;;;;;;;;;;;;;16.56;100.00;99853.09;3056947;19;988;-48
2022/08/27 03:35:47;;;;;;;;;;;;;;;16.56;100.00;99856.63;3056269;19;1211;-49
2022/08/27 03:36:55;;;;;;;;;;;;;;;16.56;100.00;99850.38;3056457;19;984;-49
2022/08/27 03:37:57;;;;;;;;;;;;;;;16.55;100.00;99854.06;3056721;19;929;-48
2022/08/27 03:39:01;;;;;;;;;;;;;;;16.55;100.00;99859.47;3056711;19;1194;-49
2022/08/27 03:40:04;;;;;;;;;;;;;;;16.56;100.00;99863.84;3056865;19;996;-48
2022/08/27 03:41:08;;;;;;;;;;;;;;;16.57;100.00;99852.09;3056330;19;957;-48
2022/08/27 03:42:11;;;;;;;;;;;;;;;16.57;100.00;99858.31;3056709;19;887;-49
2022/08/27 03:43:16;;;;;;;;;;;;;;;16.57;100.00;99850.25;3048711;19;1862;-49
2022/08/27 03:44:18;;;;;;;;;;;;;;;16.59;100.00;99850.09;3049360;19;1398;-49
2022/08/27 03:45:26;;;;;;;;;;;;;;;16.61;100.00;99856.19;3048880;19;963;-49
2022/08/27 03:46:29;;;;;;;;;;;;;;;16.62;100.00;99852.53;3051476;19;1060;-48
2022/08/27 03:47:34;;;;;;;;;;;;;;;16.65;100.00;99854.09;3051080;19;1304;-48
2022/08/27 03:48:36;;;;;;;;;;;;;;;16.66;100.00;99853.94;3051405;19;1008;-49
2022/08/27 03:49:41;;;;;;;;;;;;;;;16.66;100.00;99856.66;3051647;19;945;-48
2022/08/27 03:50:45;;;;;;;;;;;;;;;16.69;100.00;99853.63;3056865;19;877;-49
2022/08/27 03:51:53;;;;;;;;;;;;;;;16.71;100.00;99851.63;3056687;19;901;-48
2022/08/27 03:52:55;;;;;;;;;;;;;;;16.74;100.00;99854.03;3055779;19;929;-48
2022/08/27 03:53:59;;;;;;;;;;;;;;;16.76;100.00;99856.59;3055421;19;983;-49
2022/08/27 03:55:03;;;;;;;;;;;;;;;16.79;100.00;99857.13;3056906;19;810;-49
2022/08/27 03:56:08;;;;;;;;;;;;;;;16.81;100.00;99848.88;3056194;19;977;-49
2022/08/27 03:57:10;;;;;;;;;;;;;;;16.86;100.00;99862.78;3055936;19;908;-49
2022/08/27 03:58:15;;;;;;;;;;;;;;;16.89;100.00;99855.25;3056490;19;1258;-49
2022/08/27 03:59:16;;;;;;;;;;;;;;;16.92;100.00;99863.00;3056929;19;1046;-49
2022/08/27 04:00:23;;;;;;;;;;;;;;;16.96;100.00;99847.41;3054839;19;1638;-49
2022/08/27 04:01:25;;;;;;;;;;;;;;;17.01;100.00;99871.22;3055562;19;843;-48
2022/08/27 04:02:30;;;;;;;;;;;;;;;17.04;100.00;99865.50;3056091;19;1214;-48
2022/08/27 04:03:32;;;;;;;;;;;;;;;17.06;100.00;99866.19;3056199;19;1862;-48
2022/08/27 04:04:37;;;;;;;;;;;;;;;17.11;100.00;99872.00;3055813;19;1459;-48
2022/08/27 04:05:39;;;;;;;;;;;;;;;17.15;100.00;99873.38;3049297;19;897;-49
2022/08/27 04:06:44;;;;;;;;;;;;;;;17.20;100.00;99871.09;3048302;19;1314;-49
2022/08/27 04:07:46;;;;;;;;;;;;;;;17.25;100.00;99871.50;3048340;19;1272;-49
2022/08/27 04:08:51;;;;;;;;;;;;;;;17.30;100.00;99871.88;3049329;19;1059;-50
2022/08/27 04:09:53;;;;;;;;;;;;;;;17.38;100.00;99885.47;3050011;19;952;-49
2022/08/27 04:10:57;;;;;;;;;;;;;;;17.59;100.00;99871.66;3050028;19;997;-49
2022/08/27 04:11:59;;;;;;;;;;;;;;;17.92;100.00;99895.25;3050133;19;990;-49
2022/08/27 04:13:03;;;;;;;;;;;;;;;18.21;100.00;99904.97;3055925;19;885;-49
2022/08/27 04:14:06;;;;;;;;;;;;;;;18.48;100.00;99914.75;3056076;19;1013;-48
2022/08/27 04:15:28;;;;;;;;;;;;;;;18.75;100.00;99930.81;3056268;19;986;-49
2022/08/27 04:16:31;;;;;;;;;;;;;;;18.97;100.00;99941.09;3056306;19;880;-49
2022/08/27 04:17:36;;;;;;;;;;;;;;;19.13;100.00;99950.28;3055065;19;873;-49
2022/08/27 04:18:38;;;;;;;;;;;;;;;19.37;100.00;99969.31;3055202;19;960;-50
2022/08/27 04:19:42;;;;;;;;;;;;;;;19.55;100.00;99971.97;3056200;19;992;-49
2022/08/27 04:20:45;;;;;;;;;;;;;;;19.65;100.00;99995.19;3055581;19;1033;-48
2022/08/27 04:21:49;;;;;;;;;;;;;;;19.62;100.00;100000.91;3054899;19;989;-48
2022/08/27 04:22:51;;;;;;;;;;;;;;;19.50;100.00;100002.22;3054299;19;1447;-50
2022/08/27 04:23:56;;;;;;;;;;;;;;;19.39;100.00;100005.19;3055849;19;1846;-49
2022/08/27 04:25:01;;;;;;;;;;;;;;;19.19;100.00;100006.47;3055025;19;1059;-49
2022/08/27 04:26:07;;;;;;;;;;;;;;;19.22;100.00;100008.81;3055551;19;854;-49
2022/08/27 04:27:09;;;;;;;;;;;;;;;19.48;100.00;100004.22;3055703;19;865;-49
2022/08/27 04:28:15;;;;;;;;;;;;;;;19.65;100.00;100011.41;3048229;19;1108;-49
2022/08/27 04:29:16;;;;;;;;;;;;;;;19.43;100.00;99993.03;3046287;19;1359;-49
2022/08/27 04:30:21;;;;;;;;;;;;;;;19.36;100.00;100016.34;3047758;19;1483;-49
2022/08/27 04:31:24;;;;;;;;;;;;;;;19.24;100.00;100006.81;3050237;19;953;-48
2022/08/27 04:32:29;;;;;;;;;;;;;;;19.18;100.00;100018.28;3051169;19;1260;-48
2022/08/27 04:33:35;;;;;;;;;;;;;;;19.14;100.00;100006.09;3050527;19;917;-49
2022/08/27 04:34:39;;;;;;;;;;;;;;;19.16;100.00;100013.03;3050975;19;981;-48
2022/08/27 04:35:41;;;;;;;;;;;;;;;19.23;100.00;100015.94;3055441;19;909;-48
2022/08/27 04:36:46;;;;;;;;;;;;;;;19.28;100.00;100014.44;3056023;19;996;-49
2022/08/27 04:37:48;;;;;;;;;;;;;;;19.48;100.00;100011.47;3055683;19;952;-48
2022/08/27 04:38:53;;;;;;;;;;;;;;;19.75;100.00;100025.66;3055373;19;925;-49
2022/08/27 04:39:54;;;;;;;;;;;;;;;19.91;100.00;100015.91;3055498;19;901;-48
2022/08/27 04:42:17;;;;;;;;;;;;;;;19.93;100.00;100024.69;3055503;19;1036;-49
2022/08/27 04:43:19;;;;;;;;;;;;;;;19.82;100.00;100033.97;3055584;19;1129;-51
2022/08/27 04:44:24;;;;;;;;;;;;;;;19.74;100.00;100026.66;3054799;19;1862;-48
2022/08/27 04:45:26;;;;;;;;;;;;;;;19.67;100.00;100019.38;3055539;19;969;-49
2022/08/27 04:46:31;;;;;;;;;;;;;;;19.66;100.00;100018.53;3055445;19;1016;-48
2022/08/27 04:47:34;;;;;;;;;;;;;;;19.61;100.00;100020.88;3055992;19;908;-48
2022/08/27 04:48:38;;;;;;;;;;;;;;;19.59;100.00;100017.47;3055778;19;881;-50
2022/08/27 04:49:43;;;;;;;;;;;;;;;19.59;100.00;100017.47;3055818;19;877;-50
2022/08/27 04:50:45;;;;;;;;;;;;;;;19.57;100.00;100018.66;3047902;19;1058;-49
2022/08/27 04:51:50;;;;;;;;;;;;;;;19.54;100.00;100010.88;3048224;19;944;-49
2022/08/27 04:52:52;;;;;;;;;;;;;;;19.51;100.00;100014.75;3048416;19;936;-48
2022/08/27 04:53:56;;;;;;;;;;;;;;;19.49;100.00;100015.91;3050184;19;972;-49
2022/08/27 04:55:01;;;;;;;;;;;;;;;19.46;100.00;100008.94;3050669;19;1307;-49
2022/08/27 04:56:06;;;;;;;;;;;;;;;19.44;100.00;100013.69;3049959;19;1067;-49
2022/08/27 04:57:17;;;;;;;;;;;;;;;19.42;100.00;100000.31;3051635;19;1373;-49
2022/08/27 04:58:20;;;;;;;;;;;;;;;19.43;100.00;100007.41;3055528;19;878;-49
2022/08/27 04:59:24;;;;;;;;;;;;;;;19.43;100.00;99996.59;3055380;19;1012;-49
2022/08/27 05:00:26;;;;;;;;;;;;;;;19.44;100.00;99998.25;3054990;19;1035;-48
2022/08/27 05:01:31;;;;;;;;;;;;;;;19.50;100.00;99991.41;3055928;19;980;-48
2022/08/27 05:02:33;;;;;;;;;;;;;;;19.54;100.00;99998.19;3055695;19;968;-48
2022/08/27 05:03:37;;;;;;;;;;;;;;;19.56;100.00;99996.13;3055369;19;961;-50
2022/08/27 05:04:43;;;;;;;;;;;;;;;19.61;100.00;99993.81;3054420;19;1853;-49
2022/08/27 05:05:45;;;;;;;;;;;;;;;19.67;100.00;99995.03;3055225;19;920;-49
2022/08/27 05:06:50;;;;;;;;;;;;;;;19.70;100.00;100000.94;3055054;19;1168;-49
2022/08/27 05:07:55;;;;;;;;;;;;;;;19.73;100.00;99997.06;3055733;19;854;-49
2022/08/27 05:08:59;;;;;;;;;;;;;;;19.76;100.00;99992.16;3055033;19;996;-49
2022/08/27 05:10:04;;;;;;;;;;;;;;;19.78;100.00;99995.56;3055552;19;913;-48
2022/08/27 05:11:07;;;;;;;;;;;;;;;19.83;100.00;99988.78;3055035;19;983;-49
2022/08/27 05:12:11;;;;;;;;;;;;;;;19.85;100.00;100000.28;3055678;19;897;-48
2022/08/27 05:13:14;;;;;;;;;;;;;;;19.89;100.00;99985.41;3047864;19;974;-49
2022/08/27 05:14:19;;;;;;;;;;;;;;;19.93;100.00;99986.75;3048217;19;952;-49
2022/08/27 05:15:21;;;;;;;;;;;;;;;19.94;100.00;99988.47;3047314;19;1745;-50
2022/08/27 05:16:25;;;;;;;;;;;;;;;19.97;100.00;99977.28;3049934;19;863;-49
2022/08/27 05:17:30;;;;;;;;;;;;;;;20.02;100.00;99981.22;3050057;19;1052;-49
2022/08/27 05:18:35;;;;;;;;;;;;;;;20.07;100.00;99983.41;3050489;19;1027;-48
2022/08/27 05:19:51;;;;;;;;;;;;;;;20.11;100.00;99984.75;3051109;19;1001;-49
2022/08/27 05:20:53;;;;;;;;;;;;;;;20.12;100.00;99975.63;3057133;19;964;-49
2022/08/27 05:21:58;;;;;;;;;;;;;;;20.15;100.00;99986.13;3058317;19;1043;-49
2022/08/27 05:23:00;;;;;;;;;;;;;;;20.19;100.00;99990.19;3058306;19;976;-50
2022/08/27 05:24:05;;;;;;;;;;;;;;;20.22;100.00;99987.16;3058530;19;985;-49
2022/08/27 05:25:07;;;;;;;;;;;;;;;20.29;100.00;99996.28;3055559;19;1861;-49
2022/08/27 05:26:12;;;;;;;;;;;;;;;20.35;100.00;99997.47;3057227;19;1030;-50
2022/08/27 05:27:17;;;;;;;;;;;;;;;20.41;100.00;99997.66;3056624;19;920;-48
2022/08/27 05:28:20;;;;;;;;;;;;;;;20.45;100.00;100003.59;3057704;19;1162;-48
2022/08/27 05:29:31;;;;;;;;;;;;;;;20.52;100.00;100003.78;3058471;19;912;-49
2022/08/27 05:30:36;;;;;;;;;;;;;;;20.58;100.00;99998.53;3058261;19;1299;-49
2022/08/27 05:31:41;;;;;;;;;;;;;;;20.62;100.00;100001.75;3058020;19;956;-49
2022/08/27 05:32:43;;;;;;;;;;;;;;;20.67;100.00;100007.50;3057880;19;1008;-49
2022/08/27 05:33:48;;;;;;;;;;;;;;;20.73;100.00;100012.25;3058369;19;1144;-49
2022/08/27 05:34:50;;;;;;;;;;;;;;;20.75;100.00;100016.47;3058099;19;1655;-48
2022/08/27 05:35:56;;;;;;;;;;;;;;;20.78;100.00;100016.13;3051008;19;1435;-49
2022/08/27 05:37:00;;;;;;;;;;;;;;;20.83;100.00;100013.75;3050321;19;1071;-50
2022/08/27 05:38:02;;;;;;;;;;;;;;;20.91;100.00;100015.59;3049826;19;1000;-49